createdAt,value
2022-12-17T00:05:19.293Z,102073.69
2022-12-17T00:10:39.367Z,102072.22
2022-12-17T00:15:59.449Z,102070.78
2022-12-17T00:21:19.911Z,102080.78
2022-12-17T00:26:40.197Z,102082.53
2022-12-17T00:32:00.068Z,102087.00
2022-12-17T00:37:20.095Z,102080.03
2022-12-17T00:42:40.252Z,102068.13
2022-12-17T00:48:00.239Z,102086.91
2022-12-17T00:53:20.511Z,102093.31
2022-12-17T00:58:40.668Z,102103.00
2022-12-17T01:04:00.963Z,102100.28
2022-12-17T01:09:21.371Z,102102.97
2022-12-17T01:14:41.552Z,102111.81
2022-12-17T01:20:01.711Z,102116.97
2022-12-17T01:25:21.734Z,102125.41
2022-12-17T01:30:41.848Z,102143.75
2022-12-17T01:36:02.153Z,102149.69
2022-12-17T01:41:24.200Z,102146.38
2022-12-17T01:46:47.193Z,102146.22
2022-12-17T01:52:14.903Z,102151.09
2022-12-17T01:57:35.187Z,102144.75
2022-12-17T02:02:55.542Z,102106.97
2022-12-17T02:08:33.364Z,102147.31
2022-12-17T02:13:58.135Z,102166.38
2022-12-17T02:19:29.284Z,102166.00
2022-12-17T02:25:12.243Z,102173.22
2022-12-17T02:30:32.356Z,102186.16
2022-12-17T02:36:15.832Z,102196.31
2022-12-17T02:41:39.946Z,102187.53
2022-12-17T02:47:05.210Z,102183.78
2022-12-17T02:52:30.630Z,102170.00
2022-12-17T02:57:54.035Z,102168.56
2022-12-17T03:03:14.474Z,102164.66
2022-12-17T03:08:34.435Z,102178.59
2022-12-17T03:13:54.721Z,102180.84
2022-12-17T03:19:16.329Z,102177.25
2022-12-17T03:24:36.496Z,102172.03
2022-12-17T03:29:56.159Z,102161.06
2022-12-17T03:35:16.456Z,102170.88
2022-12-17T03:40:36.439Z,102174.00
2022-12-17T03:45:56.474Z,102176.38
2022-12-17T03:51:17.342Z,102180.41
2022-12-17T03:56:37.540Z,102169.63
2022-12-17T04:01:57.820Z,102175.75
2022-12-17T04:07:17.990Z,102190.88
2022-12-17T04:12:38.199Z,102194.63
2022-12-17T04:17:58.577Z,102199.78
2022-12-17T04:23:18.593Z,102204.59
2022-12-17T04:28:38.798Z,102233.50
2022-12-17T04:33:58.918Z,102225.91
2022-12-17T04:39:35.742Z,102227.06
2022-12-17T04:44:55.714Z,102236.81
2022-12-17T04:50:15.759Z,102225.31
2022-12-17T04:55:35.941Z,102231.25
2022-12-17T05:00:56.077Z,102220.66
2022-12-17T05:06:16.199Z,102222.25
2022-12-17T05:11:36.397Z,102201.59
2022-12-17T05:16:56.556Z,102199.84
2022-12-17T05:22:16.915Z,102207.50
2022-12-17T05:27:37.007Z,102213.03
2022-12-17T05:32:57.245Z,102207.00
2022-12-17T05:38:25.105Z,102217.75
2022-12-17T05:43:45.012Z,102230.38
2022-12-17T05:49:05.076Z,102229.66
2022-12-17T05:54:25.688Z,102221.63
2022-12-17T05:59:45.805Z,102230.81
2022-12-17T06:05:06.000Z,102229.06
2022-12-17T06:10:26.050Z,102231.75
2022-12-17T06:15:46.281Z,102235.03
2022-12-17T06:21:06.985Z,102237.75
2022-12-17T06:26:26.988Z,102236.94
2022-12-17T06:31:47.202Z,102250.47
2022-12-17T06:37:07.062Z,102252.75
2022-12-17T06:42:27.241Z,102258.88
2022-12-17T06:47:47.468Z,102259.13
2022-12-17T06:53:19.664Z,102268.22
2022-12-17T06:58:39.727Z,102267.63
2022-12-17T07:03:59.851Z,102282.50
2022-12-17T07:09:20.208Z,102302.31
2022-12-17T07:14:40.306Z,102296.25
2022-12-17T07:20:00.516Z,102304.59
2022-12-17T07:25:20.680Z,102301.88
2022-12-17T07:30:40.868Z,102310.47
2022-12-17T07:36:00.867Z,102313.09
2022-12-17T07:41:21.063Z,102320.72
2022-12-17T07:46:41.173Z,102337.75
2022-12-17T07:52:01.239Z,102341.34
2022-12-17T07:57:21.004Z,102347.22
2022-12-17T08:02:41.492Z,102357.50
2022-12-17T08:08:01.707Z,102365.34
2022-12-17T08:13:23.954Z,102364.06
2022-12-17T08:18:44.095Z,102360.63
2022-12-17T08:24:04.359Z,102381.06
2022-12-17T08:29:24.542Z,102379.31
2022-12-17T08:34:44.668Z,102391.16
2022-12-17T08:40:04.677Z,102388.50
2022-12-17T08:45:25.531Z,102391.03
2022-12-17T08:50:45.563Z,102395.66
2022-12-17T08:56:05.821Z,102407.47
2022-12-17T09:01:26.270Z,102412.78
2022-12-17T09:06:46.551Z,102399.66
2022-12-17T09:12:06.549Z,102410.63
2022-12-17T09:17:26.740Z,102418.56
2022-12-17T09:22:46.873Z,102419.56
2022-12-17T09:28:07.063Z,102417.75
2022-12-17T09:33:27.109Z,102420.50
2022-12-17T09:38:47.539Z,102418.47
2022-12-17T09:44:23.947Z,102412.88
2022-12-17T09:49:46.682Z,102411.91
2022-12-17T09:55:10.149Z,102415.13
2022-12-17T10:01:00.833Z,102426.28
2022-12-17T10:06:40.719Z,102418.00
2022-12-17T10:12:00.692Z,102417.72
2022-12-17T10:17:20.918Z,102430.06
2022-12-17T10:22:41.507Z,102410.53
2022-12-17T10:28:01.731Z,102426.00
2022-12-17T10:33:26.362Z,102429.16
2022-12-17T10:38:48.955Z,102419.78
2022-12-17T10:44:08.844Z,102425.41
2022-12-17T10:49:37.626Z,102424.75
2022-12-17T10:54:58.491Z,102425.84
2022-12-17T11:00:32.449Z,102426.59
2022-12-17T11:05:59.481Z,102424.81
2022-12-17T11:11:26.282Z,102420.06
2022-12-17T11:16:52.290Z,102403.09
2022-12-17T11:22:20.186Z,102417.09
2022-12-17T11:27:51.951Z,102417.09
2022-12-17T11:33:18.120Z,102421.94
2022-12-17T11:38:51.251Z,102428.72
2022-12-17T11:44:38.855Z,102424.34
2022-12-17T11:50:07.848Z,102420.63
2022-12-17T11:55:54.245Z,102422.38
2022-12-17T12:01:35.951Z,102425.47
2022-12-17T12:07:16.295Z,102428.88
2022-12-17T12:13:00.317Z,102441.09
2022-12-17T12:18:53.627Z,102437.84
2022-12-17T12:24:25.763Z,102450.25
2022-12-17T12:30:02.761Z,102461.66
2022-12-17T12:35:26.475Z,102455.84
2022-12-17T12:40:52.724Z,102455.56
2022-12-17T12:46:21.368Z,102455.50
2022-12-17T12:51:45.961Z,102466.22
2022-12-17T12:57:05.811Z,102467.28
2022-12-17T13:02:47.754Z,102472.63
2022-12-17T13:07:49.367Z,102466.03
2022-12-17T13:12:51.423Z,102475.09
2022-12-17T13:18:03.625Z,102467.00
2022-12-17T13:23:11.121Z,102465.94
2022-12-17T13:28:30.847Z,102444.19
2022-12-17T13:33:56.606Z,102457.69
2022-12-17T13:39:24.239Z,102450.59
2022-12-17T13:44:29.807Z,102446.00
2022-12-17T13:49:31.642Z,102461.13
2022-12-17T13:54:33.251Z,102459.97
2022-12-17T13:59:34.698Z,102461.94
2022-12-17T14:04:36.099Z,102467.25
2022-12-17T14:09:42.653Z,102462.09
2022-12-17T14:14:48.387Z,102453.34
2022-12-17T14:20:02.341Z,102458.88
2022-12-17T14:25:06.657Z,102475.13
2022-12-17T14:30:23.543Z,102481.88
2022-12-17T14:35:31.706Z,102484.91
2022-12-17T14:40:33.251Z,102475.50
2022-12-17T14:45:54.792Z,102479.91
2022-12-17T14:50:56.498Z,102469.13
2022-12-17T14:55:58.954Z,102471.09
2022-12-17T15:01:07.844Z,102482.28
2022-12-17T15:06:13.241Z,102491.53
2022-12-17T15:11:18.144Z,102489.00
2022-12-17T15:16:19.677Z,102499.97
2022-12-17T15:21:21.299Z,102513.28
2022-12-17T15:26:23.828Z,102493.69
2022-12-17T15:31:27.595Z,102506.06
2022-12-17T15:36:32.498Z,102493.50
2022-12-17T15:41:52.774Z,102500.84
2022-12-17T15:46:54.425Z,102507.91
2022-12-17T15:51:55.888Z,102509.66
2022-12-17T15:56:58.099Z,102524.66
2022-12-17T16:01:59.856Z,102511.94
2022-12-17T16:07:01.534Z,102520.53
2022-12-17T16:12:03.059Z,102514.97
2022-12-17T16:17:04.544Z,102510.84
2022-12-17T16:22:06.038Z,102517.13
2022-12-17T16:27:07.731Z,102497.06
2022-12-17T16:32:09.279Z,102505.00
2022-12-17T16:37:11.165Z,102516.13
2022-12-17T16:42:12.748Z,102516.44
2022-12-17T16:47:14.176Z,102523.75
2022-12-17T16:52:15.583Z,102522.88
2022-12-17T16:57:17.030Z,102507.41
2022-12-17T17:02:18.706Z,102529.94
2022-12-17T17:07:20.215Z,102538.94
2022-12-17T17:12:21.634Z,102533.09
2022-12-17T17:17:53.880Z,102532.00
2022-12-17T17:22:44.592Z,102544.81
2022-12-17T17:27:46.014Z,102546.00
2022-12-17T17:32:47.659Z,102545.50
2022-12-17T17:37:49.125Z,102551.78
2022-12-17T17:42:53.029Z,102558.34
2022-12-17T17:47:54.688Z,102555.31
2022-12-17T17:52:56.160Z,102557.84
2022-12-17T17:57:57.574Z,102556.13
2022-12-17T18:02:59.256Z,102554.75
2022-12-17T18:08:00.922Z,102563.66
2022-12-17T18:13:21.161Z,102582.94
2022-12-17T18:18:22.622Z,102581.41
2022-12-17T18:23:24.035Z,102591.66
2022-12-17T18:28:25.552Z,102588.44
2022-12-17T18:33:30.052Z,102587.75
2022-12-17T18:38:31.647Z,102595.69
2022-12-17T18:43:33.051Z,102590.41
2022-12-17T18:48:34.702Z,102586.75
2022-12-17T18:53:36.440Z,102596.66
2022-12-17T18:58:38.288Z,102584.78
2022-12-17T19:03:39.987Z,102592.41
2022-12-17T19:08:41.427Z,102612.78
2022-12-17T19:13:43.599Z,102616.25
2022-12-17T19:18:45.301Z,102622.81
2022-12-17T19:23:48.108Z,102619.38
2022-12-17T19:28:51.778Z,102613.41
2022-12-17T19:33:57.983Z,102628.38
2022-12-17T19:39:01.785Z,102636.09
2022-12-17T19:44:06.338Z,102636.91
2022-12-17T19:49:10.707Z,102639.91
2022-12-17T19:54:14.823Z,102648.28
2022-12-17T19:59:16.431Z,102650.72
2022-12-17T20:04:18.860Z,102647.13
2022-12-17T20:09:20.286Z,102643.34
2022-12-17T20:14:28.616Z,102641.22
2022-12-17T20:19:32.203Z,102643.50
2022-12-17T20:24:33.668Z,102651.28
2022-12-17T20:29:35.734Z,102654.22
2022-12-17T20:34:37.203Z,102662.41
2022-12-17T20:39:38.769Z,102657.97
2022-12-17T20:44:40.264Z,102651.59
2022-12-17T20:49:41.816Z,102649.25
2022-12-17T20:54:43.293Z,102648.59
2022-12-17T20:59:44.751Z,102656.94
2022-12-17T21:04:49.015Z,102655.81
2022-12-17T21:09:50.555Z,102659.94
2022-12-17T21:14:51.963Z,102660.25
2022-12-17T21:19:54.407Z,102669.94
2022-12-17T21:24:56.173Z,102667.00
2022-12-17T21:29:57.656Z,102665.22
2022-12-17T21:34:59.516Z,102659.66
2022-12-17T21:40:01.940Z,102661.19
2022-12-17T21:45:03.808Z,102675.03
2022-12-17T21:50:05.870Z,102677.19
2022-12-17T21:55:07.813Z,102673.44
2022-12-17T22:00:09.949Z,102683.38
2022-12-17T22:05:16.236Z,102675.41
2022-12-17T22:10:42.355Z,102660.41
2022-12-17T22:15:48.005Z,102661.94
2022-12-17T22:20:58.019Z,102676.13
2022-12-17T22:25:59.497Z,102685.34
2022-12-17T22:31:23.675Z,102685.56
2022-12-17T22:39:09.935Z,102673.66
2022-12-17T22:44:35.710Z,102671.03
2022-12-17T22:47:31.810Z,102682.59
2022-12-17T22:52:33.287Z,102688.88
2022-12-17T22:57:38.244Z,102681.44
2022-12-17T23:02:40.606Z,102686.97
2022-12-17T23:07:43.157Z,102697.38
2022-12-17T23:12:50.912Z,102700.50
2022-12-17T23:17:54.427Z,102710.81
2022-12-17T23:22:56.727Z,102713.94
2022-12-17T23:27:58.740Z,102708.31
2022-12-17T23:33:00.220Z,102716.66
2022-12-17T23:38:01.620Z,102719.75
2022-12-17T23:43:03.086Z,102717.88
2022-12-17T23:48:05.142Z,102716.63
2022-12-17T23:53:06.605Z,102719.50
2022-12-17T23:58:08.059Z,102708.84
